sensor_id;sensor_type;location;lat;lon;timestamp;P1;durP1;ratioP1;P2;durP2;ratioP2
18142;SDS011;9197;50.930;3.140;2022-12-29T00:00:11;0.70;;;0.60;;
18142;SDS011;9197;50.930;3.140;2022-12-29T00:02:39;0.93;;;0.60;;
18142;SDS011;9197;50.930;3.140;2022-12-29T00:05:06;1.77;;;1.03;;
18142;SDS011;9197;50.930;3.140;2022-12-29T00:07:35;1.23;;;0.63;;
18142;SDS011;9197;50.930;3.140;2022-12-29T00:10:02;0.83;;;0.70;;
18142;SDS011;9197;50.930;3.140;2022-12-29T00:12:29;1.30;;;0.90;;
18142;SDS011;9197;50.930;3.140;2022-12-29T00:15:16;0.60;;;0.60;;
18142;SDS011;9197;50.930;3.140;2022-12-29T00:18:01;0.83;;;0.70;;
18142;SDS011;9197;50.930;3.140;2022-12-29T00:20:28;2.10;;;0.60;;
18142;SDS011;9197;50.930;3.140;2022-12-29T00:23:20;1.43;;;0.50;;
18142;SDS011;9197;50.930;3.140;2022-12-29T00:26:08;0.90;;;0.80;;
18142;SDS011;9197;50.930;3.140;2022-12-29T00:28:55;2.77;;;0.80;;
18142;SDS011;9197;50.930;3.140;2022-12-29T00:31:40;2.20;;;0.70;;
18142;SDS011;9197;50.930;3.140;2022-12-29T00:34:24;4.97;;;0.67;;
18142;SDS011;9197;50.930;3.140;2022-12-29T00:37:09;1.90;;;0.50;;
18142;SDS011;9197;50.930;3.140;2022-12-29T00:39:37;0.87;;;0.70;;
18142;SDS011;9197;50.930;3.140;2022-12-29T00:42:22;2.40;;;0.83;;
18142;SDS011;9197;50.930;3.140;2022-12-29T00:45:07;1.90;;;0.67;;
18142;SDS011;9197;50.930;3.140;2022-12-29T00:47:36;3.07;;;0.90;;
18142;SDS011;9197;50.930;3.140;2022-12-29T00:50:03;1.30;;;0.70;;
18142;SDS011;9197;50.930;3.140;2022-12-29T00:52:29;2.13;;;0.60;;
18142;SDS011;9197;50.930;3.140;2022-12-29T00:54:58;2.87;;;0.90;;
18142;SDS011;9197;50.930;3.140;2022-12-29T00:57:25;1.37;;;0.60;;
18142;SDS011;9197;50.930;3.140;2022-12-29T00:59:52;2.00;;;0.73;;
18142;SDS011;9197;50.930;3.140;2022-12-29T01:02:19;1.03;;;0.57;;
18142;SDS011;9197;50.930;3.140;2022-12-29T01:04:49;2.17;;;0.60;;
18142;SDS011;9197;50.930;3.140;2022-12-29T01:07:16;2.70;;;1.03;;
18142;SDS011;9197;50.930;3.140;2022-12-29T01:09:43;1.47;;;0.80;;
18142;SDS011;9197;50.930;3.140;2022-12-29T01:12:29;3.53;;;0.97;;
18142;SDS011;9197;50.930;3.140;2022-12-29T01:15:11;1.67;;;1.43;;
18142;SDS011;9197;50.930;3.140;2022-12-29T01:17:38;4.43;;;1.40;;
18142;SDS011;9197;50.930;3.140;2022-12-29T01:20:06;1.80;;;0.90;;
18142;SDS011;9197;50.930;3.140;2022-12-29T01:22:33;2.77;;;0.97;;
18142;SDS011;9197;50.930;3.140;2022-12-29T01:25:00;3.37;;;0.93;;
18142;SDS011;9197;50.930;3.140;2022-12-29T01:27:27;3.63;;;1.17;;
18142;SDS011;9197;50.930;3.140;2022-12-29T01:29:56;3.80;;;1.00;;
18142;SDS011;9197;50.930;3.140;2022-12-29T01:32:23;4.37;;;1.07;;
18142;SDS011;9197;50.930;3.140;2022-12-29T01:34:51;3.43;;;0.90;;
18142;SDS011;9197;50.930;3.140;2022-12-29T01:37:18;4.53;;;1.37;;
18142;SDS011;9197;50.930;3.140;2022-12-29T01:39:45;1.73;;;0.90;;
18142;SDS011;9197;50.930;3.140;2022-12-29T01:42:14;3.23;;;0.90;;
18142;SDS011;9197;50.930;3.140;2022-12-29T01:44:50;7.23;;;1.23;;
18142;SDS011;9197;50.930;3.140;2022-12-29T01:47:21;3.37;;;1.47;;
18142;SDS011;9197;50.930;3.140;2022-12-29T01:49:50;2.57;;;1.10;;
18142;SDS011;9197;50.930;3.140;2022-12-29T01:52:17;6.50;;;1.20;;
18142;SDS011;9197;50.930;3.140;2022-12-29T01:54:46;5.43;;;1.47;;
18142;SDS011;9197;50.930;3.140;2022-12-29T01:57:15;4.90;;;0.90;;
18142;SDS011;9197;50.930;3.140;2022-12-29T01:59:45;8.10;;;1.30;;
18142;SDS011;9197;50.930;3.140;2022-12-29T02:02:13;4.40;;;1.67;;
18142;SDS011;9197;50.930;3.140;2022-12-29T02:04:41;9.73;;;1.90;;
18142;SDS011;9197;50.930;3.140;2022-12-29T02:07:10;3.93;;;1.27;;
18142;SDS011;9197;50.930;3.140;2022-12-29T02:09:40;4.67;;;1.20;;
18142;SDS011;9197;50.930;3.140;2022-12-29T02:12:08;6.20;;;2.07;;
18142;SDS011;9197;50.930;3.140;2022-12-29T02:14:35;8.07;;;2.07;;
18142;SDS011;9197;50.930;3.140;2022-12-29T02:17:04;4.77;;;1.67;;
18142;SDS011;9197;50.930;3.140;2022-12-29T02:19:46;10.43;;;3.87;;
18142;SDS011;9197;50.930;3.140;2022-12-29T02:22:19;4.20;;;2.10;;
18142;SDS011;9197;50.930;3.140;2022-12-29T02:25:00;5.30;;;1.40;;
18142;SDS011;9197;50.930;3.140;2022-12-29T02:30:30;2.03;;;1.63;;
18142;SDS011;9197;50.930;3.140;2022-12-29T02:32:59;3.33;;;1.27;;
18142;SDS011;9197;50.930;3.140;2022-12-29T02:35:32;5.50;;;1.30;;
18142;SDS011;9197;50.930;3.140;2022-12-29T02:38:05;3.13;;;0.90;;
18142;SDS011;9197;50.930;3.140;2022-12-29T02:40:39;5.57;;;0.97;;
18142;SDS011;9197;50.930;3.140;2022-12-29T02:43:10;2.30;;;1.10;;
18142;SDS011;9197;50.930;3.140;2022-12-29T02:45:46;7.80;;;1.40;;
18142;SDS011;9197;50.930;3.140;2022-12-29T02:48:15;2.63;;;1.10;;
18142;SDS011;9197;50.930;3.140;2022-12-29T02:50:47;12.43;;;1.50;;
18142;SDS011;9197;50.930;3.140;2022-12-29T02:53:18;4.30;;;1.60;;
18142;SDS011;9197;50.930;3.140;2022-12-29T02:56:07;8.13;;;1.80;;
18142;SDS011;9197;50.930;3.140;2022-12-29T02:58:33;5.47;;;1.60;;
18142;SDS011;9197;50.930;3.140;2022-12-29T03:01:06;8.37;;;2.77;;
18142;SDS011;9197;50.930;3.140;2022-12-29T03:03:41;7.17;;;1.83;;
18142;SDS011;9197;50.930;3.140;2022-12-29T03:06:24;4.13;;;1.33;;
18142;SDS011;9197;50.930;3.140;2022-12-29T03:08:58;5.20;;;1.43;;
18142;SDS011;9197;50.930;3.140;2022-12-29T03:11:33;8.17;;;1.83;;
18142;SDS011;9197;50.930;3.140;2022-12-29T03:14:22;4.37;;;2.27;;
18142;SDS011;9197;50.930;3.140;2022-12-29T03:17:13;7.07;;;2.10;;
18142;SDS011;9197;50.930;3.140;2022-12-29T03:19:44;5.07;;;2.10;;
18142;SDS011;9197;50.930;3.140;2022-12-29T03:22:14;12.00;;;2.77;;
18142;SDS011;9197;50.930;3.140;2022-12-29T03:24:53;11.83;;;2.83;;
18142;SDS011;9197;50.930;3.140;2022-12-29T03:27:22;9.30;;;2.73;;
18142;SDS011;9197;50.930;3.140;2022-12-29T03:29:52;10.40;;;2.10;;
18142;SDS011;9197;50.930;3.140;2022-12-29T03:32:21;9.57;;;2.70;;
18142;SDS011;9197;50.930;3.140;2022-12-29T03:34:50;9.27;;;2.90;;
18142;SDS011;9197;50.930;3.140;2022-12-29T03:37:18;16.43;;;4.30;;
18142;SDS011;9197;50.930;3.140;2022-12-29T03:39:47;13.87;;;2.83;;
18142;SDS011;9197;50.930;3.140;2022-12-29T03:42:15;9.83;;;3.13;;
18142;SDS011;9197;50.930;3.140;2022-12-29T03:44:44;13.97;;;2.10;;
18142;SDS011;9197;50.930;3.140;2022-12-29T03:47:12;11.13;;;1.93;;
18142;SDS011;9197;50.930;3.140;2022-12-29T03:49:41;7.57;;;2.50;;
18142;SDS011;9197;50.930;3.140;2022-12-29T03:52:08;13.23;;;1.93;;
18142;SDS011;9197;50.930;3.140;2022-12-29T03:54:36;9.77;;;2.70;;
18142;SDS011;9197;50.930;3.140;2022-12-29T03:57:03;8.83;;;2.17;;
18142;SDS011;9197;50.930;3.140;2022-12-29T03:59:30;10.37;;;2.20;;
18142;SDS011;9197;50.930;3.140;2022-12-29T04:01:57;9.90;;;2.57;;
18142;SDS011;9197;50.930;3.140;2022-12-29T04:04:24;10.07;;;1.77;;
18142;SDS011;9197;50.930;3.140;2022-12-29T04:06:53;10.63;;;2.13;;
18142;SDS011;9197;50.930;3.140;2022-12-29T04:09:20;8.33;;;2.27;;
18142;SDS011;9197;50.930;3.140;2022-12-29T04:11:47;9.83;;;3.10;;
18142;SDS011;9197;50.930;3.140;2022-12-29T04:14:14;8.43;;;1.80;;
18142;SDS011;9197;50.930;3.140;2022-12-29T04:16:42;7.70;;;1.87;;
18142;SDS011;9197;50.930;3.140;2022-12-29T04:19:09;5.60;;;2.00;;
18142;SDS011;9197;50.930;3.140;2022-12-29T04:21:36;11.40;;;1.80;;
18142;SDS011;9197;50.930;3.140;2022-12-29T04:24:06;5.33;;;1.27;;
18142;SDS011;9197;50.930;3.140;2022-12-29T04:26:38;10.00;;;2.03;;
18142;SDS011;9197;50.930;3.140;2022-12-29T04:29:05;6.83;;;2.00;;
18142;SDS011;9197;50.930;3.140;2022-12-29T04:31:34;8.00;;;1.70;;
18142;SDS011;9197;50.930;3.140;2022-12-29T04:34:01;4.50;;;1.50;;
18142;SDS011;9197;50.930;3.140;2022-12-29T04:36:28;6.20;;;1.40;;
18142;SDS011;9197;50.930;3.140;2022-12-29T04:38:55;5.93;;;1.87;;
18142;SDS011;9197;50.930;3.140;2022-12-29T04:41:24;4.30;;;1.57;;
18142;SDS011;9197;50.930;3.140;2022-12-29T04:43:51;5.80;;;1.43;;
18142;SDS011;9197;50.930;3.140;2022-12-29T04:46:18;11.63;;;1.83;;
18142;SDS011;9197;50.930;3.140;2022-12-29T04:48:45;4.63;;;1.97;;
18142;SDS011;9197;50.930;3.140;2022-12-29T04:51:13;6.93;;;1.83;;
18142;SDS011;9197;50.930;3.140;2022-12-29T04:53:42;6.50;;;1.20;;
18142;SDS011;9197;50.930;3.140;2022-12-29T04:56:09;3.00;;;1.50;;
18142;SDS011;9197;50.930;3.140;2022-12-29T04:58:38;9.07;;;1.60;;
18142;SDS011;9197;50.930;3.140;2022-12-29T05:01:05;6.67;;;1.43;;
18142;SDS011;9197;50.930;3.140;2022-12-29T05:03:32;5.60;;;2.40;;
18142;SDS011;9197;50.930;3.140;2022-12-29T05:05:59;8.77;;;2.57;;
18142;SDS011;9197;50.930;3.140;2022-12-29T05:08:27;5.70;;;2.30;;
18142;SDS011;9197;50.930;3.140;2022-12-29T05:10:54;6.27;;;2.37;;
18142;SDS011;9197;50.930;3.140;2022-12-29T05:13:23;6.97;;;1.60;;
18142;SDS011;9197;50.930;3.140;2022-12-29T05:15:52;7.60;;;2.30;;
18142;SDS011;9197;50.930;3.140;2022-12-29T05:18:19;7.43;;;1.83;;
18142;SDS011;9197;50.930;3.140;2022-12-29T05:20:47;10.87;;;2.00;;
18142;SDS011;9197;50.930;3.140;2022-12-29T05:23:17;6.40;;;1.83;;
18142;SDS011;9197;50.930;3.140;2022-12-29T05:25:45;7.90;;;1.73;;
18142;SDS011;9197;50.930;3.140;2022-12-29T05:28:12;9.63;;;2.67;;
18142;SDS011;9197;50.930;3.140;2022-12-29T05:30:39;10.57;;;3.20;;
18142;SDS011;9197;50.930;3.140;2022-12-29T05:33:08;10.47;;;2.07;;
18142;SDS011;9197;50.930;3.140;2022-12-29T05:35:36;12.47;;;1.90;;
18142;SDS011;9197;50.930;3.140;2022-12-29T05:38:04;9.20;;;1.73;;
18142;SDS011;9197;50.930;3.140;2022-12-29T05:40:31;9.03;;;2.30;;
18142;SDS011;9197;50.930;3.140;2022-12-29T05:42:58;8.83;;;2.43;;
18142;SDS011;9197;50.930;3.140;2022-12-29T05:45:25;11.53;;;2.13;;
18142;SDS011;9197;50.930;3.140;2022-12-29T05:47:52;17.00;;;2.90;;
18142;SDS011;9197;50.930;3.140;2022-12-29T05:50:22;11.23;;;2.80;;
18142;SDS011;9197;50.930;3.140;2022-12-29T05:52:49;11.53;;;3.40;;
18142;SDS011;9197;50.930;3.140;2022-12-29T05:55:17;9.37;;;3.03;;
18142;SDS011;9197;50.930;3.140;2022-12-29T05:57:44;9.77;;;3.07;;
18142;SDS011;9197;50.930;3.140;2022-12-29T06:00:12;10.40;;;2.67;;
18142;SDS011;9197;50.930;3.140;2022-12-29T06:02:39;10.33;;;2.27;;
18142;SDS011;9197;50.930;3.140;2022-12-29T06:05:07;9.00;;;2.47;;
18142;SDS011;9197;50.930;3.140;2022-12-29T06:07:35;9.90;;;2.93;;
18142;SDS011;9197;50.930;3.140;2022-12-29T06:10:03;13.50;;;3.83;;
18142;SDS011;9197;50.930;3.140;2022-12-29T06:12:31;9.93;;;2.10;;
18142;SDS011;9197;50.930;3.140;2022-12-29T06:14:58;9.27;;;3.17;;
18142;SDS011;9197;50.930;3.140;2022-12-29T06:17:25;12.57;;;2.63;;
18142;SDS011;9197;50.930;3.140;2022-12-29T06:19:52;10.43;;;2.93;;
18142;SDS011;9197;50.930;3.140;2022-12-29T06:22:19;12.37;;;2.47;;
18142;SDS011;9197;50.930;3.140;2022-12-29T06:24:48;9.77;;;2.63;;
18142;SDS011;9197;50.930;3.140;2022-12-29T06:27:15;11.97;;;2.80;;
18142;SDS011;9197;50.930;3.140;2022-12-29T06:29:42;9.20;;;2.03;;
18142;SDS011;9197;50.930;3.140;2022-12-29T06:32:09;13.60;;;3.40;;
18142;SDS011;9197;50.930;3.140;2022-12-29T06:34:37;10.90;;;2.57;;
18142;SDS011;9197;50.930;3.140;2022-12-29T06:37:04;11.30;;;3.33;;
18142;SDS011;9197;50.930;3.140;2022-12-29T06:39:31;14.37;;;3.30;;
18142;SDS011;9197;50.930;3.140;2022-12-29T06:42:00;6.87;;;2.87;;
18142;SDS011;9197;50.930;3.140;2022-12-29T06:44:27;9.57;;;2.53;;
18142;SDS011;9197;50.930;3.140;2022-12-29T06:46:54;11.60;;;2.40;;
18142;SDS011;9197;50.930;3.140;2022-12-29T06:49:22;13.57;;;2.40;;
18142;SDS011;9197;50.930;3.140;2022-12-29T06:51:49;11.07;;;2.30;;
18142;SDS011;9197;50.930;3.140;2022-12-29T06:54:16;9.73;;;2.50;;
18142;SDS011;9197;50.930;3.140;2022-12-29T06:56:44;10.73;;;2.87;;
18142;SDS011;9197;50.930;3.140;2022-12-29T06:59:12;8.83;;;2.60;;
18142;SDS011;9197;50.930;3.140;2022-12-29T07:01:39;14.57;;;2.53;;
18142;SDS011;9197;50.930;3.140;2022-12-29T07:04:07;10.67;;;2.23;;
18142;SDS011;9197;50.930;3.140;2022-12-29T07:06:34;8.27;;;2.23;;
18142;SDS011;9197;50.930;3.140;2022-12-29T07:09:01;10.20;;;2.73;;
18142;SDS011;9197;50.930;3.140;2022-12-29T07:11:29;10.30;;;2.37;;
18142;SDS011;9197;50.930;3.140;2022-12-29T07:13:56;11.53;;;2.90;;
18142;SDS011;9197;50.930;3.140;2022-12-29T07:16:25;7.60;;;1.90;;
18142;SDS011;9197;50.930;3.140;2022-12-29T07:18:54;9.17;;;2.50;;
18142;SDS011;9197;50.930;3.140;2022-12-29T07:21:21;11.67;;;2.20;;
18142;SDS011;9197;50.930;3.140;2022-12-29T07:23:48;11.43;;;2.70;;
18142;SDS011;9197;50.930;3.140;2022-12-29T07:26:15;12.90;;;2.77;;
18142;SDS011;9197;50.930;3.140;2022-12-29T07:28:43;8.33;;;2.37;;
18142;SDS011;9197;50.930;3.140;2022-12-29T07:31:12;10.30;;;2.63;;
18142;SDS011;9197;50.930;3.140;2022-12-29T07:33:42;5.97;;;3.17;;
18142;SDS011;9197;50.930;3.140;2022-12-29T07:36:09;13.37;;;2.87;;
18142;SDS011;9197;50.930;3.140;2022-12-29T07:38:36;9.60;;;2.67;;
18142;SDS011;9197;50.930;3.140;2022-12-29T07:41:03;12.03;;;2.53;;
18142;SDS011;9197;50.930;3.140;2022-12-29T07:43:31;7.33;;;2.70;;
18142;SDS011;9197;50.930;3.140;2022-12-29T07:45:58;6.90;;;2.20;;
18142;SDS011;9197;50.930;3.140;2022-12-29T07:48:25;12.67;;;2.93;;
18142;SDS011;9197;50.930;3.140;2022-12-29T07:50:54;12.87;;;2.93;;
18142;SDS011;9197;50.930;3.140;2022-12-29T07:53:21;10.60;;;2.60;;
18142;SDS011;9197;50.930;3.140;2022-12-29T07:55:48;11.53;;;2.97;;
18142;SDS011;9197;50.930;3.140;2022-12-29T07:58:16;12.57;;;3.17;;
18142;SDS011;9197;50.930;3.140;2022-12-29T08:00:43;9.13;;;2.60;;
18142;SDS011;9197;50.930;3.140;2022-12-29T08:03:10;15.50;;;3.00;;
18142;SDS011;9197;50.930;3.140;2022-12-29T08:05:38;17.00;;;3.00;;
18142;SDS011;9197;50.930;3.140;2022-12-29T08:08:07;14.73;;;2.53;;
18142;SDS011;9197;50.930;3.140;2022-12-29T08:10:34;12.60;;;2.97;;
18142;SDS011;9197;50.930;3.140;2022-12-29T08:13:01;12.20;;;2.77;;
18142;SDS011;9197;50.930;3.140;2022-12-29T08:15:28;10.73;;;2.97;;
18142;SDS011;9197;50.930;3.140;2022-12-29T08:17:55;14.97;;;3.10;;
18142;SDS011;9197;50.930;3.140;2022-12-29T08:20:23;12.83;;;2.10;;
18142;SDS011;9197;50.930;3.140;2022-12-29T08:22:50;12.67;;;4.10;;
18142;SDS011;9197;50.930;3.140;2022-12-29T08:25:18;15.33;;;2.97;;
18142;SDS011;9197;50.930;3.140;2022-12-29T08:27:46;13.77;;;4.90;;
18142;SDS011;9197;50.930;3.140;2022-12-29T08:30:13;12.50;;;3.40;;
18142;SDS011;9197;50.930;3.140;2022-12-29T08:32:41;15.80;;;3.23;;
18142;SDS011;9197;50.930;3.140;2022-12-29T08:35:08;18.70;;;3.17;;
18142;SDS011;9197;50.930;3.140;2022-12-29T08:37:35;16.13;;;2.93;;
18142;SDS011;9197;50.930;3.140;2022-12-29T08:40:03;16.40;;;4.17;;
18142;SDS011;9197;50.930;3.140;2022-12-29T08:42:32;12.87;;;3.07;;
18142;SDS011;9197;50.930;3.140;2022-12-29T08:44:59;15.07;;;3.97;;
18142;SDS011;9197;50.930;3.140;2022-12-29T08:47:26;7.43;;;3.07;;
18142;SDS011;9197;50.930;3.140;2022-12-29T08:49:54;17.90;;;3.53;;
18142;SDS011;9197;50.930;3.140;2022-12-29T08:52:21;16.80;;;4.63;;
18142;SDS011;9197;50.930;3.140;2022-12-29T08:54:49;18.40;;;3.70;;
18142;SDS011;9197;50.930;3.140;2022-12-29T08:57:16;16.07;;;3.23;;
18142;SDS011;9197;50.930;3.140;2022-12-29T08:59:44;14.50;;;3.80;;
18142;SDS011;9197;50.930;3.140;2022-12-29T09:02:12;15.33;;;3.27;;
18142;SDS011;9197;50.930;3.140;2022-12-29T09:04:39;18.43;;;4.57;;
18142;SDS011;9197;50.930;3.140;2022-12-29T09:07:06;15.80;;;3.67;;
18142;SDS011;9197;50.930;3.140;2022-12-29T09:09:33;16.23;;;3.37;;
18142;SDS011;9197;50.930;3.140;2022-12-29T09:12:01;16.43;;;3.57;;
18142;SDS011;9197;50.930;3.140;2022-12-29T09:14:28;16.40;;;3.00;;
18142;SDS011;9197;50.930;3.140;2022-12-29T09:16:56;13.13;;;4.57;;
18142;SDS011;9197;50.930;3.140;2022-12-29T09:19:41;18.33;;;3.33;;
18142;SDS011;9197;50.930;3.140;2022-12-29T09:22:08;17.23;;;3.30;;
18142;SDS011;9197;50.930;3.140;2022-12-29T09:24:35;10.73;;;2.63;;
18142;SDS011;9197;50.930;3.140;2022-12-29T09:27:03;15.07;;;3.90;;
18142;SDS011;9197;50.930;3.140;2022-12-29T09:29:30;16.17;;;3.07;;
18142;SDS011;9197;50.930;3.140;2022-12-29T09:31:58;12.17;;;3.00;;
18142;SDS011;9197;50.930;3.140;2022-12-29T09:34:26;12.50;;;3.37;;
18142;SDS011;9197;50.930;3.140;2022-12-29T09:36:53;10.00;;;3.07;;
18142;SDS011;9197;50.930;3.140;2022-12-29T09:39:22;14.27;;;3.73;;
18142;SDS011;9197;50.930;3.140;2022-12-29T09:41:52;14.30;;;3.70;;
18142;SDS011;9197;50.930;3.140;2022-12-29T09:44:26;21.73;;;4.53;;
18142;SDS011;9197;50.930;3.140;2022-12-29T09:46:58;16.57;;;4.10;;
18142;SDS011;9197;50.930;3.140;2022-12-29T09:49:28;18.40;;;4.30;;
18142;SDS011;9197;50.930;3.140;2022-12-29T09:51:59;15.47;;;4.00;;
18142;SDS011;9197;50.930;3.140;2022-12-29T09:54:33;14.73;;;3.43;;
18142;SDS011;9197;50.930;3.140;2022-12-29T09:57:01;10.87;;;3.43;;
18142;SDS011;9197;50.930;3.140;2022-12-29T09:59:32;16.23;;;3.63;;
18142;SDS011;9197;50.930;3.140;2022-12-29T10:02:04;21.33;;;4.40;;
18142;SDS011;9197;50.930;3.140;2022-12-29T10:04:37;12.80;;;3.63;;
18142;SDS011;9197;50.930;3.140;2022-12-29T10:07:07;18.80;;;3.80;;
18142;SDS011;9197;50.930;3.140;2022-12-29T10:09:37;16.43;;;3.60;;
18142;SDS011;9197;50.930;3.140;2022-12-29T10:12:11;10.77;;;3.30;;
18142;SDS011;9197;50.930;3.140;2022-12-29T10:14:53;15.87;;;4.40;;
18142;SDS011;9197;50.930;3.140;2022-12-29T10:17:27;12.07;;;3.00;;
18142;SDS011;9197;50.930;3.140;2022-12-29T10:20:02;9.73;;;2.50;;
18142;SDS011;9197;50.930;3.140;2022-12-29T10:22:38;11.60;;;3.03;;
18142;SDS011;9197;50.930;3.140;2022-12-29T10:25:09;10.43;;;2.23;;
18142;SDS011;9197;50.930;3.140;2022-12-29T10:27:38;10.97;;;3.90;;
18142;SDS011;9197;50.930;3.140;2022-12-29T10:30:05;4.37;;;1.90;;
18142;SDS011;9197;50.930;3.140;2022-12-29T10:32:34;10.33;;;1.87;;
18142;SDS011;9197;50.930;3.140;2022-12-29T10:35:05;9.30;;;1.93;;
18142;SDS011;9197;50.930;3.140;2022-12-29T10:37:34;6.97;;;1.53;;
18142;SDS011;9197;50.930;3.140;2022-12-29T10:40:12;9.30;;;1.80;;
18142;SDS011;9197;50.930;3.140;2022-12-29T10:42:41;5.57;;;1.93;;
18142;SDS011;9197;50.930;3.140;2022-12-29T10:45:11;7.63;;;2.27;;
18142;SDS011;9197;50.930;3.140;2022-12-29T10:47:43;8.93;;;2.80;;
18142;SDS011;9197;50.930;3.140;2022-12-29T10:50:13;10.07;;;2.10;;
18142;SDS011;9197;50.930;3.140;2022-12-29T10:52:40;11.37;;;2.87;;
18142;SDS011;9197;50.930;3.140;2022-12-29T10:55:08;13.30;;;2.57;;
18142;SDS011;9197;50.930;3.140;2022-12-29T10:57:40;7.50;;;2.30;;
18142;SDS011;9197;50.930;3.140;2022-12-29T11:00:11;8.17;;;2.50;;
18142;SDS011;9197;50.930;3.140;2022-12-29T11:02:57;8.27;;;2.47;;
18142;SDS011;9197;50.930;3.140;2022-12-29T11:05:28;8.57;;;2.30;;
18142;SDS011;9197;50.930;3.140;2022-12-29T11:08:00;12.47;;;2.73;;
18142;SDS011;9197;50.930;3.140;2022-12-29T11:10:30;9.90;;;2.33;;
18142;SDS011;9197;50.930;3.140;2022-12-29T11:12:58;12.07;;;3.13;;
18142;SDS011;9197;50.930;3.140;2022-12-29T11:15:25;11.17;;;2.87;;
18142;SDS011;9197;50.930;3.140;2022-12-29T11:17:53;14.30;;;3.47;;
18142;SDS011;9197;50.930;3.140;2022-12-29T11:20:28;13.17;;;2.70;;
18142;SDS011;9197;50.930;3.140;2022-12-29T11:22:56;13.03;;;3.27;;
18142;SDS011;9197;50.930;3.140;2022-12-29T11:25:23;18.77;;;3.53;;
18142;SDS011;9197;50.930;3.140;2022-12-29T11:27:57;14.87;;;4.83;;
18142;SDS011;9197;50.930;3.140;2022-12-29T11:30:26;22.60;;;3.73;;
18142;SDS011;9197;50.930;3.140;2022-12-29T11:32:54;15.63;;;4.13;;
18142;SDS011;9197;50.930;3.140;2022-12-29T11:35:32;21.20;;;4.27;;
18142;SDS011;9197;50.930;3.140;2022-12-29T11:38:00;17.57;;;3.47;;
18142;SDS011;9197;50.930;3.140;2022-12-29T11:40:28;15.00;;;2.90;;
18142;SDS011;9197;50.930;3.140;2022-12-29T11:42:56;22.30;;;3.77;;
18142;SDS011;9197;50.930;3.140;2022-12-29T11:45:28;18.43;;;4.93;;
18142;SDS011;9197;50.930;3.140;2022-12-29T11:47:58;12.03;;;3.43;;
18142;SDS011;9197;50.930;3.140;2022-12-29T11:50:26;18.30;;;4.50;;
18142;SDS011;9197;50.930;3.140;2022-12-29T11:52:58;20.17;;;3.30;;
18142;SDS011;9197;50.930;3.140;2022-12-29T11:55:27;15.27;;;2.80;;
18142;SDS011;9197;50.930;3.140;2022-12-29T11:57:55;9.37;;;2.20;;
18142;SDS011;9197;50.930;3.140;2022-12-29T12:00:23;14.40;;;2.20;;
18142;SDS011;9197;50.930;3.140;2022-12-29T12:02:53;12.60;;;3.00;;
18142;SDS011;9197;50.930;3.140;2022-12-29T12:05:26;12.97;;;2.83;;
18142;SDS011;9197;50.930;3.140;2022-12-29T12:07:56;8.87;;;2.10;;
18142;SDS011;9197;50.930;3.140;2022-12-29T12:10:28;8.83;;;2.13;;
18142;SDS011;9197;50.930;3.140;2022-12-29T12:13:00;11.43;;;1.97;;
18142;SDS011;9197;50.930;3.140;2022-12-29T12:15:29;8.13;;;1.73;;
18142;SDS011;9197;50.930;3.140;2022-12-29T12:18:02;5.07;;;1.37;;
18142;SDS011;9197;50.930;3.140;2022-12-29T12:20:34;6.07;;;1.37;;
18142;SDS011;9197;50.930;3.140;2022-12-29T12:23:06;8.13;;;1.83;;
18142;SDS011;9197;50.930;3.140;2022-12-29T12:25:37;10.27;;;2.10;;
18142;SDS011;9197;50.930;3.140;2022-12-29T12:28:05;7.67;;;2.30;;
18142;SDS011;9197;50.930;3.140;2022-12-29T12:30:36;4.97;;;2.47;;
18142;SDS011;9197;50.930;3.140;2022-12-29T12:33:06;5.57;;;2.33;;
18142;SDS011;9197;50.930;3.140;2022-12-29T12:35:39;17.47;;;2.57;;
18142;SDS011;9197;50.930;3.140;2022-12-29T12:38:20;11.27;;;2.60;;
18142;SDS011;9197;50.930;3.140;2022-12-29T12:40:56;7.63;;;2.23;;
18142;SDS011;9197;50.930;3.140;2022-12-29T12:46:17;7.57;;;1.63;;
18142;SDS011;9197;50.930;3.140;2022-12-29T12:49:00;3.67;;;1.60;;
18142;SDS011;9197;50.930;3.140;2022-12-29T12:51:32;4.60;;;1.20;;
18142;SDS011;9197;50.930;3.140;2022-12-29T12:54:03;4.17;;;1.77;;
18142;SDS011;9197;50.930;3.140;2022-12-29T12:56:38;4.40;;;1.27;;
18142;SDS011;9197;50.930;3.140;2022-12-29T12:59:10;5.50;;;1.30;;
18142;SDS011;9197;50.930;3.140;2022-12-29T13:01:42;5.47;;;1.27;;
18142;SDS011;9197;50.930;3.140;2022-12-29T13:04:17;3.43;;;0.90;;
18142;SDS011;9197;50.930;3.140;2022-12-29T13:06:47;2.53;;;0.70;;
18142;SDS011;9197;50.930;3.140;2022-12-29T13:09:21;6.00;;;1.47;;
18142;SDS011;9197;50.930;3.140;2022-12-29T13:11:55;5.93;;;1.40;;
18142;SDS011;9197;50.930;3.140;2022-12-29T13:14:29;5.20;;;1.20;;
18142;SDS011;9197;50.930;3.140;2022-12-29T13:17:00;2.17;;;1.30;;
18142;SDS011;9197;50.930;3.140;2022-12-29T13:19:33;4.00;;;1.63;;
18142;SDS011;9197;50.930;3.140;2022-12-29T13:22:03;4.40;;;0.90;;
18142;SDS011;9197;50.930;3.140;2022-12-29T13:24:33;4.43;;;1.40;;
18142;SDS011;9197;50.930;3.140;2022-12-29T13:27:05;3.83;;;1.17;;
18142;SDS011;9197;50.930;3.140;2022-12-29T13:29:38;6.47;;;1.50;;
18142;SDS011;9197;50.930;3.140;2022-12-29T13:32:14;7.83;;;1.43;;
18142;SDS011;9197;50.930;3.140;2022-12-29T13:34:48;3.87;;;1.50;;
18142;SDS011;9197;50.930;3.140;2022-12-29T13:37:20;5.63;;;2.00;;
18142;SDS011;9197;50.930;3.140;2022-12-29T13:39:51;5.13;;;1.73;;
18142;SDS011;9197;50.930;3.140;2022-12-29T13:42:20;3.20;;;1.20;;
18142;SDS011;9197;50.930;3.140;2022-12-29T13:44:48;6.40;;;1.53;;
18142;SDS011;9197;50.930;3.140;2022-12-29T13:47:20;4.13;;;1.30;;
18142;SDS011;9197;50.930;3.140;2022-12-29T13:49:48;6.83;;;2.00;;
18142;SDS011;9197;50.930;3.140;2022-12-29T13:52:18;7.90;;;1.60;;
18142;SDS011;9197;50.930;3.140;2022-12-29T13:54:54;6.07;;;1.20;;
18142;SDS011;9197;50.930;3.140;2022-12-29T13:57:28;7.70;;;1.67;;
18142;SDS011;9197;50.930;3.140;2022-12-29T13:59:59;9.03;;;1.80;;
18142;SDS011;9197;50.930;3.140;2022-12-29T14:02:30;10.43;;;1.57;;
18142;SDS011;9197;50.930;3.140;2022-12-29T14:05:00;4.40;;;1.07;;
18142;SDS011;9197;50.930;3.140;2022-12-29T14:07:28;5.07;;;1.27;;
18142;SDS011;9197;50.930;3.140;2022-12-29T14:09:56;5.20;;;1.67;;
18142;SDS011;9197;50.930;3.140;2022-12-29T14:12:32;6.27;;;1.57;;
18142;SDS011;9197;50.930;3.140;2022-12-29T14:15:02;3.50;;;1.27;;
18142;SDS011;9197;50.930;3.140;2022-12-29T14:17:29;4.90;;;1.67;;
18142;SDS011;9197;50.930;3.140;2022-12-29T14:19:56;8.03;;;2.30;;
18142;SDS011;9197;50.930;3.140;2022-12-29T14:22:24;6.40;;;1.67;;
18142;SDS011;9197;50.930;3.140;2022-12-29T14:24:51;8.53;;;1.70;;
18142;SDS011;9197;50.930;3.140;2022-12-29T14:33:10;7.40;;;1.67;;
18142;SDS011;9197;50.930;3.140;2022-12-29T14:35:40;9.07;;;1.83;;
18142;SDS011;9197;50.930;3.140;2022-12-29T14:38:17;9.87;;;1.77;;
18142;SDS011;9197;50.930;3.140;2022-12-29T14:40:45;6.83;;;1.93;;
18142;SDS011;9197;50.930;3.140;2022-12-29T14:43:13;8.53;;;2.17;;
18142;SDS011;9197;50.930;3.140;2022-12-29T14:45:47;5.63;;;1.80;;
18142;SDS011;9197;50.930;3.140;2022-12-29T14:48:25;7.60;;;2.97;;
18142;SDS011;9197;50.930;3.140;2022-12-29T14:50:54;5.87;;;1.63;;
18142;SDS011;9197;50.930;3.140;2022-12-29T14:56:10;7.33;;;1.93;;
18142;SDS011;9197;50.930;3.140;2022-12-29T14:58:38;6.03;;;1.67;;
18142;SDS011;9197;50.930;3.140;2022-12-29T15:01:15;5.53;;;2.00;;
18142;SDS011;9197;50.930;3.140;2022-12-29T15:03:45;5.00;;;1.70;;
18142;SDS011;9197;50.930;3.140;2022-12-29T15:06:15;8.93;;;1.67;;
18142;SDS011;9197;50.930;3.140;2022-12-29T15:08:46;8.00;;;2.47;;
18142;SDS011;9197;50.930;3.140;2022-12-29T15:11:15;7.97;;;2.23;;
18142;SDS011;9197;50.930;3.140;2022-12-29T15:13:44;8.07;;;1.60;;
18142;SDS011;9197;50.930;3.140;2022-12-29T15:16:23;7.33;;;1.50;;
18142;SDS011;9197;50.930;3.140;2022-12-29T15:18:52;9.53;;;2.00;;
18142;SDS011;9197;50.930;3.140;2022-12-29T15:21:20;6.73;;;1.77;;
18142;SDS011;9197;50.930;3.140;2022-12-29T15:23:49;6.13;;;2.03;;
18142;SDS011;9197;50.930;3.140;2022-12-29T15:26:17;3.50;;;1.50;;